Time;durP1;ratioP1;P1;durP2;ratioP2;P2;SDS_P1;SDS_P2;PMS_P1;PMS_P2;Temp;Humidity;BMP_temperature;BMP_pressure;BME280_temperature;BME280_humidity;BME280_pressure;Samples;Min_cycle;Max_cycle;Signal;HPM_P1;HPM_P2
2023/09/23 00:01:28;;;;;;;12.07;11.18;;;;;;;11.05;100.00;100544.25;5031217;28;20548;-72
2023/09/23 00:03:53;;;;;;;12.80;11.68;;;;;;;11.04;100.00;100541.78;5051779;28;20090;-72
2023/09/23 00:06:22;;;;;;;11.20;8.98;;;;;;;11.23;100.00;100550.56;5052335;28;20037;-72
2023/09/23 00:08:48;;;;;;;13.52;12.13;;;;;;;11.09;100.00;100545.41;5034294;28;20040;-70
2023/09/23 00:11:13;;;;;;;11.85;10.88;;;;;;;11.03;100.00;100551.75;5060634;28;20029;-72
2023/09/23 00:13:39;;;;;;;13.10;12.05;;;;;;;11.02;100.00;100570.94;5071839;28;20024;-73
2023/09/23 00:16:09;;;;;;;10.88;8.23;;;;;;;11.17;100.00;100563.19;5053871;28;20062;-72
2023/09/23 00:18:34;;;;;;;10.00;8.25;;;;;;;11.20;100.00;100556.47;5053717;28;20085;-73
2023/09/23 00:21:00;;;;;;;12.43;10.57;;;;;;;11.03;100.00;100557.19;5038317;28;20034;-72
2023/09/23 00:23:25;;;;;;;13.07;11.82;;;;;;;10.95;100.00;100558.34;5061939;28;20033;-73
2023/09/23 00:25:51;;;;;;;12.50;11.38;;;;;;;10.96;100.00;100559.16;5053615;28;20182;-73
2023/09/23 00:28:16;;;;;;;12.40;11.30;;;;;;;10.91;100.00;100559.06;5053776;28;20024;-72
2023/09/23 00:30:43;;;;;;;12.85;11.55;;;;;;;10.91;100.00;100569.88;5065975;28;20033;-72
2023/09/23 00:33:10;;;;;;;12.10;10.90;;;;;;;10.87;100.00;100566.00;5051784;28;20065;-73
2023/09/23 00:35:36;;;;;;;12.23;7.93;;;;;;;11.02;100.00;100563.69;5051525;28;20120;-73
2023/09/23 00:38:02;;;;;;;14.07;8.20;;;;;;;11.05;100.00;100574.03;5033433;28;20113;-73
2023/09/23 00:40:37;;;;;;;12.55;10.70;;;;;;;10.89;100.00;100566.59;5052491;28;20165;-73
2023/09/23 00:43:05;;;;;;;9.80;6.97;;;;;;;11.07;100.00;100574.63;5053781;28;20041;-73
2023/09/23 00:45:31;;;;;;;11.52;10.40;;;;;;;10.86;100.00;100581.41;5074766;28;20031;-73
2023/09/23 00:47:58;;;;;;;9.35;6.65;;;;;;;11.06;100.00;100588.38;5075628;28;20032;-73
2023/09/23 00:50:24;;;;;;;12.30;9.70;;;;;;;10.90;100.00;100581.75;5054913;28;20037;-72
2023/09/23 00:52:51;;;;;;;9.48;5.95;;;;;;;11.05;100.00;100581.31;5069916;28;20103;-73
2023/09/23 00:55:18;;;;;;;10.27;6.40;;;;;;;11.07;100.00;100576.50;5055394;28;20070;-72
2023/09/23 00:57:49;;;;;;;13.18;6.57;;;;;;;11.09;100.00;100575.19;5037521;28;20059;-74
2023/09/23 01:00:23;;;;;;;9.02;5.80;;;;;;;11.12;100.00;100584.72;5055083;28;20033;-73
2023/09/23 01:02:49;;;;;;;9.75;8.80;;;;;;;10.98;100.00;100584.97;5050777;28;20033;-73
2023/09/23 01:05:16;;;;;;;12.05;9.88;;;;;;;10.92;100.00;100588.59;5055521;28;20412;-73
2023/09/23 01:07:42;;;;;;;7.07;4.82;;;;;;;11.08;100.00;100580.84;5054718;28;20025;-73
2023/09/23 01:10:08;;;;;;;9.13;8.00;;;;;;;10.96;100.00;100588.94;5037048;28;20090;-73
2023/09/23 01:12:33;;;;;;;12.18;5.55;;;;;;;11.06;100.00;100594.63;5073547;28;20123;-73
2023/09/23 01:14:58;;;;;;;13.43;8.70;;;;;;;10.92;100.00;100598.63;5057130;28;20643;-74
2023/09/23 01:17:24;;;;;;;11.38;8.50;;;;;;;10.89;100.00;100599.91;5074838;28;20064;-73
2023/09/23 01:19:51;;;;;;;10.85;8.65;;;;;;;10.91;100.00;100595.06;5056990;28;20131;-73
2023/09/23 01:22:23;;;;;;;9.07;8.18;;;;;;;10.91;100.00;100607.78;5074302;28;20090;-73
2023/09/23 01:24:48;;;;;;;7.72;5.40;;;;;;;11.05;100.00;100603.81;5064563;28;20033;-73
2023/09/23 01:27:14;;;;;;;7.90;4.80;;;;;;;11.06;100.00;100610.88;5037614;28;20036;-74
2023/09/23 01:29:39;;;;;;;13.73;7.72;;;;;;;10.93;100.00;100611.06;5054564;28;20041;-73
2023/09/23 01:32:45;;;;;;;7.97;7.15;;;;;;;10.94;100.00;100613.56;5068393;28;20086;-73
2023/09/23 01:35:11;;;;;;;10.93;4.85;;;;;;;11.04;100.00;100615.69;5074651;28;20028;-73
2023/09/23 01:37:37;;;;;;;10.50;4.28;;;;;;;11.04;100.00;100612.19;5074095;28;20032;-73
2023/09/23 01:40:05;;;;;;;8.60;6.57;;;;;;;10.85;100.00;100622.25;5064216;28;20353;-73
2023/09/23 01:42:32;;;;;;;5.95;3.97;;;;;;;10.97;100.00;100617.69;5054011;28;20460;-73
2023/09/23 01:44:57;;;;;;;10.73;6.70;;;;;;;10.85;100.00;100620.38;5036625;28;20048;-73
2023/09/23 01:47:23;;;;;;;10.32;6.55;;;;;;;10.85;100.00;100622.25;5054636;28;20029;-73
2023/09/23 01:49:48;;;;;;;6.35;3.67;;;;;;;10.92;100.00;100629.22;5035578;28;20025;-73
2023/09/23 01:52:16;;;;;;;5.35;3.88;;;;;;;10.95;100.00;100623.34;5054599;28;20079;-73
2023/09/23 01:54:44;;;;;;;12.45;6.68;;;;;;;10.87;100.00;100622.84;5054201;28;20460;-73
2023/09/23 01:57:12;;;;;;;6.93;3.88;;;;;;;10.97;100.00;100626.63;5052401;28;20040;-73
2023/09/23 01:59:40;;;;;;;12.15;5.70;;;;;;;10.81;100.00;100630.84;5054897;28;20036;-73
2023/09/23 02:02:06;;;;;;;14.68;6.22;;;;;;;10.81;100.00;100636.25;5051392;28;20473;-73
2023/09/23 02:04:32;;;;;;;8.10;3.83;;;;;;;10.93;100.00;100635.44;5057761;28;20044;-73
2023/09/23 02:06:57;;;;;;;7.00;3.47;;;;;;;10.92;100.00;100640.03;5074420;28;20025;-73
2023/09/23 02:09:22;;;;;;;10.90;3.88;;;;;;;10.92;100.00;100633.81;5069899;28;20090;-73
2023/09/23 02:11:48;;;;;;;9.43;4.00;;;;;;;10.91;100.00;100634.88;5035958;28;20051;-73
2023/09/23 02:14:13;;;;;;;9.90;5.68;;;;;;;10.75;100.00;100636.34;5054077;28;20032;-73
2023/09/23 02:16:39;;;;;;;9.60;5.18;;;;;;;10.72;100.00;100636.81;5053660;28;20048;-73
2023/09/23 02:19:04;;;;;;;8.48;4.90;;;;;;;10.70;100.00;100645.16;5053643;28;20045;-73
2023/09/23 02:21:30;;;;;;;3.90;2.63;;;;;;;10.80;100.00;100648.13;5073703;28;20025;-73
2023/09/23 02:23:58;;;;;;;4.90;3.03;;;;;;;10.82;100.00;100648.75;5055909;28;20119;-73
2023/09/23 02:26:24;;;;;;;11.48;4.72;;;;;;;10.68;100.00;100647.28;5073787;28;20040;-73
2023/09/23 02:28:49;;;;;;;9.07;4.90;;;;;;;10.63;100.00;100656.09;5073550;28;20028;-73
2023/09/23 02:31:15;;;;;;;11.95;4.50;;;;;;;10.61;100.00;100654.66;5072869;28;20107;-73
2023/09/23 02:33:43;;;;;;;2.90;2.25;;;;;;;10.73;100.00;100658.22;5052808;28;20032;-73
2023/09/23 02:36:08;;;;;;;11.98;4.15;;;;;;;10.57;100.00;100658.91;5040186;28;20055;-73
2023/09/23 02:38:34;;;;;;;14.18;4.50;;;;;;;10.58;100.00;100666.78;5073376;28;20468;-73
2023/09/23 02:41:04;;;;;;;5.60;3.20;;;;;;;10.68;100.00;100671.63;5072524;28;20052;-73
2023/09/23 02:43:29;;;;;;;6.40;4.03;;;;;;;10.57;100.00;100667.84;5055565;28;20032;-73
2023/09/23 02:46:00;;;;;;;9.50;4.22;;;;;;;10.54;100.00;100672.88;5073368;28;20025;-73
2023/09/23 02:48:26;;;;;;;9.27;3.10;;;;;;;10.67;100.00;100686.22;5073213;28;20181;-73
2023/09/23 02:50:51;;;;;;;10.30;4.30;;;;;;;10.55;100.00;100679.94;5039279;28;20060;-73
2023/09/23 02:53:16;;;;;;;5.80;2.60;;;;;;;10.69;100.00;100688.69;5060065;28;20027;-73
2023/09/23 02:55:51;;;;;;;5.25;2.67;;;;;;;10.66;100.00;100684.59;5073237;28;20025;-73
2023/09/23 02:58:21;;;;;;;7.00;4.35;;;;;;;10.54;100.00;100672.88;5073427;28;20028;-73
2023/09/23 03:00:57;;;;;;;7.18;2.63;;;;;;;10.62;100.00;100681.50;5069752;28;20023;-73
2023/09/23 03:03:24;;;;;;;9.30;4.13;;;;;;;10.54;100.00;100695.34;5072756;28;20479;-73
2023/09/23 03:05:55;;;;;;;9.85;4.70;;;;;;;10.49;100.00;100684.38;5073023;28;20062;-73
2023/09/23 03:08:23;;;;;;;10.68;2.97;;;;;;;10.62;100.00;100694.19;5061710;28;20039;-73
2023/09/23 03:10:51;;;;;;;11.85;4.20;;;;;;;10.49;100.00;100688.97;5065538;28;20126;-73
2023/09/23 03:13:18;;;;;;;10.18;4.15;;;;;;;10.44;100.00;100686.94;5072967;28;20036;-73
2023/09/23 03:15:53;;;;;;;10.40;3.95;;;;;;;10.48;100.00;100690.00;5054670;28;20372;-73
2023/09/23 03:18:28;;;;;;;5.78;2.38;;;;;;;10.57;100.00;100691.38;5072587;28;20483;-73
2023/09/23 03:21:00;;;;;;;10.20;3.15;;;;;;;10.57;100.00;100694.06;5058246;28;20477;-73
2023/09/23 03:23:26;;;;;;;10.50;4.10;;;;;;;10.43;100.00;100696.94;5055625;28;20037;-73
2023/09/23 03:25:52;;;;;;;9.82;4.07;;;;;;;10.42;100.00;100695.28;5054467;28;20062;-73
2023/09/23 03:28:17;;;;;;;9.10;3.90;;;;;;;10.41;100.00;100698.22;5073060;28;20093;-73
2023/09/23 03:30:50;;;;;;;6.32;2.53;;;;;;;10.50;100.00;100704.97;5041532;28;20032;-73
2023/09/23 03:33:18;;;;;;;4.03;2.47;;;;;;;10.54;100.00;100705.34;5034592;28;20383;-73
2023/09/23 03:35:44;;;;;;;9.35;3.92;;;;;;;10.44;100.00;100711.28;5052172;28;20025;-73
2023/09/23 03:38:10;;;;;;;8.73;4.03;;;;;;;10.39;100.00;100709.28;5051989;28;20029;-73
2023/09/23 03:40:38;;;;;;;5.43;2.80;;;;;;;10.50;100.00;100714.97;5033781;28;20067;-73
2023/09/23 03:43:03;;;;;;;5.68;2.40;;;;;;;10.53;100.00;100722.63;5052432;28;20025;-73
2023/09/23 03:45:33;;;;;;;4.07;2.38;;;;;;;10.53;100.00;100717.22;5052440;28;20452;-73
2023/09/23 03:47:58;;;;;;;6.25;2.28;;;;;;;10.56;100.00;100722.19;5052008;28;20028;-73
2023/09/23 03:50:24;;;;;;;12.70;3.70;;;;;;;10.41;100.00;100722.56;5054253;28;20086;-73
2023/09/23 03:52:51;;;;;;;7.65;2.63;;;;;;;10.54;100.00;100721.59;5051908;28;20400;-73
2023/09/23 03:55:18;;;;;;;6.43;2.03;;;;;;;10.56;100.00;100727.59;5034190;28;20029;-73
2023/09/23 03:57:44;;;;;;;8.43;3.45;;;;;;;10.41;100.00;100726.09;5051895;28;20472;-74
2023/09/23 04:00:16;;;;;;;10.85;4.10;;;;;;;10.37;100.00;100727.63;5056622;28;20056;-73
2023/09/23 04:02:47;;;;;;;4.88;2.22;;;;;;;10.48;100.00;100723.31;5069901;28;20653;-73
2023/09/23 04:05:14;;;;;;;8.18;3.75;;;;;;;10.36;100.00;100720.56;5062243;28;20492;-73
2023/09/23 04:07:41;;;;;;;8.95;2.30;;;;;;;10.48;100.00;100728.72;5053113;28;20032;-73
2023/09/23 04:10:09;;;;;;;9.45;4.18;;;;;;;10.40;100.00;100731.72;5067375;28;20032;-73
2023/09/23 04:12:34;;;;;;;6.68;4.03;;;;;;;10.39;100.00;100728.22;5052000;28;20098;-72
2023/09/23 04:14:59;;;;;;;6.57;2.45;;;;;;;10.50;100.00;100734.72;5051983;28;20037;-73
2023/09/23 04:17:25;;;;;;;4.78;2.30;;;;;;;10.53;100.00;100741.56;5051720;28;20029;-73
2023/09/23 04:19:50;;;;;;;7.70;3.42;;;;;;;10.40;100.00;100732.56;5057513;28;20039;-73
2023/09/23 04:22:18;;;;;;;9.20;4.05;;;;;;;10.40;100.00;100745.25;5065842;28;20546;-73
2023/09/23 04:24:43;;;;;;;8.45;3.90;;;;;;;10.38;100.00;100747.38;5058012;28;20024;-73
2023/09/23 04:27:08;;;;;;;10.70;4.32;;;;;;;10.34;100.00;100755.13;5058899;28;20021;-73
2023/09/23 04:29:34;;;;;;;4.32;2.38;;;;;;;10.45;100.00;100756.25;5058283;28;20029;-73
2023/09/23 04:32:00;;;;;;;11.15;3.75;;;;;;;10.31;100.00;100757.41;5076917;28;20060;-73
2023/09/23 04:34:26;;;;;;;4.97;2.60;;;;;;;10.41;100.00;100761.25;5060301;28;20029;-73
2023/09/23 04:36:52;;;;;;;8.88;4.53;;;;;;;10.33;100.00;100766.13;5066986;28;20497;-73
2023/09/23 04:39:18;;;;;;;6.30;2.50;;;;;;;10.41;100.00;100769.38;5058501;28;20068;-73
2023/09/23 04:41:43;;;;;;;8.88;4.07;;;;;;;10.33;100.00;100775.09;5039867;28;20102;-73
2023/09/23 04:44:09;;;;;;;13.57;4.60;;;;;;;10.29;100.00;100769.25;5040485;28;20037;-72
2023/09/23 04:46:35;;;;;;;5.05;2.08;;;;;;;10.40;100.00;100781.28;5058302;28;20056;-73
2023/09/23 04:49:01;;;;;;;9.90;2.65;;;;;;;10.40;100.00;100786.69;5058298;28;20031;-73
2023/09/23 04:51:26;;;;;;;8.13;2.65;;;;;;;10.40;100.00;100781.28;5057404;28;20025;-72
2023/09/23 04:53:51;;;;;;;2.60;2.20;;;;;;;10.40;100.00;100781.28;5058104;28;20044;-73
2023/09/23 04:56:17;;;;;;;10.13;3.83;;;;;;;10.30;100.00;100789.03;5058208;28;20068;-73
2023/09/23 04:58:43;;;;;;;7.57;2.55;;;;;;;10.40;100.00;100789.38;5057980;28;20025;-73
2023/09/23 05:01:14;;;;;;;8.57;3.85;;;;;;;10.27;100.00;100795.72;5063750;28;20024;-73
2023/09/23 05:03:39;;;;;;;3.58;2.50;;;;;;;10.37;100.00;100789.00;5059979;28;20037;-73
2023/09/23 05:06:05;;;;;;;7.82;3.00;;;;;;;10.35;100.00;100802.75;5077934;28;20365;-73
2023/09/23 05:08:31;;;;;;;4.45;2.60;;;;;;;10.37;100.00;100803.34;5078186;28;20064;-73
2023/09/23 05:10:57;;;;;;;4.68;2.45;;;;;;;10.34;100.00;100805.66;5071602;28;20068;-73
2023/09/23 05:13:24;;;;;;;10.05;4.30;;;;;;;10.19;100.00;100806.84;5058137;28;20456;-73
2023/09/23 05:15:50;;;;;;;12.73;4.50;;;;;;;10.12;100.00;100811.47;5057259;28;20456;-73
2023/09/23 05:18:15;;;;;;;5.47;2.72;;;;;;;10.22;100.00;100817.22;5058289;28;20028;-73
2023/09/23 05:20:40;;;;;;;7.38;3.05;;;;;;;10.24;100.00;100825.09;5060177;28;20107;-73
2023/09/23 05:23:06;;;;;;;12.02;4.38;;;;;;;10.14;100.00;100830.19;5078022;28;20134;-74
2023/09/23 05:25:33;;;;;;;8.27;3.05;;;;;;;10.22;100.00;100832.59;5077918;28;20017;-74
2023/09/23 05:27:59;;;;;;;6.32;2.88;;;;;;;10.23;100.00;100845.06;5077561;28;20468;-73
2023/09/23 05:30:27;;;;;;;5.80;2.78;;;;;;;10.25;100.00;100845.66;5059313;28;20036;-73
2023/09/23 05:32:53;;;;;;;6.72;2.60;;;;;;;10.21;100.00;100852.59;5056743;28;20063;-72
2023/09/23 05:35:18;;;;;;;10.73;4.32;;;;;;;10.09;100.00;100853.31;5074714;28;20059;-73
2023/09/23 05:37:43;;;;;;;7.93;3.08;;;;;;;10.19;100.00;100860.94;5074271;28;20067;-72
2023/09/23 05:40:26;;;;;;;5.28;3.00;;;;;;;10.21;100.00;100864.22;5074704;28;20037;-72
2023/09/23 05:42:52;;;;;;;10.95;4.22;;;;;;;10.11;100.00;100859.34;5069455;28;20079;-72
2023/09/23 05:45:18;;;;;;;5.10;3.05;;;;;;;10.17;100.00;100879.22;5054050;28;20046;-72
2023/09/23 05:47:47;;;;;;;7.18;2.00;;;;;;;10.20;100.00;100877.97;5054377;28;20035;-72
2023/09/23 05:50:17;;;;;;;5.28;3.00;;;;;;;10.20;100.00;100875.25;5054278;28;20033;-72
2023/09/23 05:52:45;;;;;;;4.18;2.67;;;;;;;10.20;100.00;100878.78;5063322;28;20029;-72
2023/09/23 05:55:11;;;;;;;9.48;4.35;;;;;;;10.14;100.00;100884.25;5056348;28;20488;-75
2023/09/23 05:57:38;;;;;;;11.80;4.10;;;;;;;10.10;100.00;100884.72;5074344;28;20104;-72
2023/09/23 06:00:08;;;;;;;7.90;3.42;;;;;;;10.22;100.00;100883.97;5074125;28;20052;-72
2023/09/23 06:02:34;;;;;;;10.02;4.40;;;;;;;10.14;100.00;100887.78;5070388;28;20039;-72
2023/09/23 06:05:01;;;;;;;10.80;4.32;;;;;;;10.15;100.00;100894.03;5066672;28;20048;-73
2023/09/23 06:07:27;;;;;;;8.02;4.35;;;;;;;10.13;100.00;100899.66;5054930;28;20118;-73
2023/09/23 06:09:52;;;;;;;8.48;4.35;;;;;;;10.17;100.00;100905.44;5053672;28;20387;-72
2023/09/23 06:12:18;;;;;;;5.05;2.50;;;;;;;10.28;100.00;100920.94;5051311;28;20130;-72
2023/09/23 06:14:43;;;;;;;6.97;2.70;;;;;;;10.34;100.00;100917.41;5073706;28;20475;-73
2023/09/23 06:17:08;;;;;;;8.27;2.45;;;;;;;10.40;100.00;100924.63;5068737;28;20103;-73
2023/09/23 06:19:34;;;;;;;5.97;2.78;;;;;;;10.39;100.00;100936.50;5047754;28;20043;-72
2023/09/23 06:21:59;;;;;;;10.60;4.07;;;;;;;10.27;100.00;100932.84;5041915;28;20115;-73
2023/09/23 06:24:25;;;;;;;6.15;2.97;;;;;;;10.38;100.00;100942.13;5064029;28;20486;-73
2023/09/23 06:26:50;;;;;;;4.93;2.40;;;;;;;10.42;100.00;100946.06;5072882;28;20041;-74
2023/09/23 06:29:15;;;;;;;4.07;2.50;;;;;;;10.44;100.00;100939.34;5073124;28;20075;-73
2023/09/23 06:31:41;;;;;;;6.85;3.88;;;;;;;10.38;100.00;100942.94;5067798;28;20032;-72
2023/09/23 06:34:06;;;;;;;11.38;4.45;;;;;;;10.40;100.00;100946.28;5072932;28;20025;-74
2023/09/23 06:36:32;;;;;;;9.85;4.00;;;;;;;10.44;100.00;100955.59;5072921;28;20028;-73
2023/09/23 06:38:58;;;;;;;14.85;4.70;;;;;;;10.44;100.00;100952.06;5055385;28;20041;-72
2023/09/23 06:41:23;;;;;;;6.53;3.25;;;;;;;10.54;100.00;100960.50;5058994;28;20098;-73
2023/09/23 06:43:48;;;;;;;5.63;2.45;;;;;;;10.59;100.00;100974.19;5072328;28;20051;-73
2023/09/23 06:46:14;;;;;;;9.23;4.03;;;;;;;10.54;100.00;100970.53;5073562;28;20035;-72
2023/09/23 06:48:43;;;;;;;5.57;2.90;;;;;;;10.63;100.00;100971.88;5073032;28;20076;-83
2023/09/23 06:51:09;;;;;;;9.07;2.92;;;;;;;10.65;100.00;100980.59;5048600;28;20029;-73
2023/09/23 06:53:34;;;;;;;10.07;2.97;;;;;;;10.68;100.00;100977.44;5058776;28;20031;-74
2023/09/23 06:56:00;;;;;;;4.72;2.70;;;;;;;10.72;100.00;100984.09;5054987;28;20062;-72
2023/09/23 06:58:25;;;;;;;10.05;4.63;;;;;;;10.70;100.00;100982.63;5073235;28;20025;-81
2023/09/23 07:00:51;;;;;;;7.18;4.00;;;;;;;10.69;100.00;100995.34;5049144;28;20045;-73
2023/09/23 07:03:17;;;;;;;8.30;3.25;;;;;;;10.76;100.00;100987.97;5052548;28;20484;-77
2023/09/23 07:05:43;;;;;;;8.80;4.82;;;;;;;10.76;100.00;100989.88;5053133;28;20124;-77
2023/09/23 07:08:09;;;;;;;6.88;3.38;;;;;;;10.85;100.00;100995.81;5060646;28;20063;-73
2023/09/23 07:10:35;;;;;;;9.40;3.30;;;;;;;10.87;100.00;100997.28;5071510;28;20090;-74
2023/09/23 07:13:03;;;;;;;9.77;3.60;;;;;;;10.92;100.00;100999.31;5067363;28;20432;-72
2023/09/23 07:15:30;;;;;;;6.35;3.15;;;;;;;11.01;100.00;101007.97;5034586;28;20025;-72
2023/09/23 07:17:56;;;;;;;11.05;4.53;;;;;;;10.85;100.00;101002.06;5052343;28;20032;-74
2023/09/23 07:20:22;;;;;;;8.98;4.70;;;;;;;10.90;100.00;101004.94;5052317;28;20353;-73
2023/09/23 07:22:47;;;;;;;7.35;3.10;;;;;;;10.98;100.00;101015.47;5069509;28;20032;-73
2023/09/23 07:25:12;;;;;;;6.40;3.15;;;;;;;11.03;100.00;101022.94;5071854;28;20089;-72
2023/09/23 07:27:37;;;;;;;13.85;3.47;;;;;;;11.08;100.00;101031.22;5050702;28;20032;-73
2023/09/23 07:30:03;;;;;;;10.32;4.45;;;;;;;11.05;100.00;101023.56;5052098;28;20036;-73
2023/09/23 07:32:29;;;;;;;6.88;3.45;;;;;;;11.12;100.00;101037.00;5066508;28;20048;-73
2023/09/23 07:34:54;;;;;;;12.05;4.78;;;;;;;11.14;100.00;101035.75;5053760;28;20115;-73
2023/09/23 07:37:19;;;;;;;14.20;4.15;;;;;;;11.23;100.00;101038.16;5071805;28;20547;-73
2023/09/23 07:39:44;;;;;;;8.05;4.32;;;;;;;11.18;100.00;101053.19;5053779;28;20096;-72
2023/09/23 07:42:10;;;;;;;5.45;3.25;;;;;;;11.30;100.00;101055.97;5068887;28;20036;-78
2023/09/23 07:44:35;;;;;;;8.90;4.80;;;;;;;11.29;100.00;101056.22;5051279;28;20121;-79
2023/09/23 07:47:01;;;;;;;6.28;3.50;;;;;;;11.40;100.00;101065.47;5034336;28;20068;-82
2023/09/23 07:49:26;;;;;;;9.50;4.38;;;;;;;11.40;100.00;101060.91;5034150;28;20531;-72
2023/09/23 07:51:53;;;;;;;7.07;3.05;;;;;;;11.48;100.00;101074.13;5051931;28;20094;-73
2023/09/23 07:54:18;;;;;;;9.30;4.65;;;;;;;11.48;100.00;101063.28;5051637;28;20025;-72
2023/09/23 07:56:44;;;;;;;9.82;4.80;;;;;;;11.55;100.00;101067.81;5051821;28;20057;-72
2023/09/23 07:59:09;;;;;;;10.40;4.88;;;;;;;11.62;100.00;101071.28;5051685;28;20393;-78
2023/09/23 08:01:35;;;;;;;9.05;3.50;;;;;;;11.69;100.00;101074.75;5051472;28;20538;-72
2023/09/23 08:04:00;;;;;;;11.95;5.35;;;;;;;11.74;100.00;101074.88;5051753;28;20087;-71
2023/09/23 08:06:25;;;;;;;13.30;4.75;;;;;;;11.79;100.00;101080.47;5052187;28;20036;-71
2023/09/23 08:08:51;;;;;;;13.30;4.88;;;;;;;11.82;100.00;101082.72;5051554;28;20060;-72
2023/09/23 08:11:16;;;;;;;9.95;4.68;;;;;;;11.86;100.00;101094.75;5054879;28;20035;-72
2023/09/23 08:13:41;;;;;;;11.55;5.15;;;;;;;11.91;100.00;101093.25;5072384;28;20438;-71
2023/09/23 08:16:07;;;;;;;6.50;3.33;;;;;;;11.97;100.00;101095.06;5065676;28;20449;-74
2023/09/23 08:18:33;;;;;;;7.93;3.63;;;;;;;12.03;100.00;101110.44;5033813;28;20021;-73
2023/09/23 08:20:59;;;;;;;11.18;4.55;;;;;;;12.07;100.00;101108.91;5051844;28;20078;-72
2023/09/23 08:23:25;;;;;;;10.10;4.30;;;;;;;12.11;100.00;101110.13;5051983;28;20036;-72
2023/09/23 08:25:50;;;;;;;11.23;4.88;;;;;;;12.16;100.00;101107.53;5034112;28;20361;-73
2023/09/23 08:28:15;;;;;;;3.60;2.70;;;;;;;12.24;100.00;101122.66;5051364;28;20032;-77
2023/09/23 08:30:43;;;;;;;10.10;4.28;;;;;;;12.22;100.00;101117.47;5051802;28;20032;-78
2023/09/23 08:33:09;;;;;;;9.20;4.20;;;;;;;12.26;100.00;101117.00;5033485;28;20033;-72
2023/09/23 08:35:35;;;;;;;9.82;3.55;;;;;;;12.32;100.00;101127.78;5051720;28;20032;-74
2023/09/23 08:38:00;;;;;;;9.25;4.10;;;;;;;12.29;100.00;101122.81;5051843;28;20032;-77
2023/09/23 08:40:28;;;;;;;9.45;4.20;;;;;;;12.38;100.00;101136.91;5033989;28;20078;-71
2023/09/23 08:42:57;;;;;;;7.55;3.70;;;;;;;12.43;100.00;101134.31;5051342;28;20040;-72
2023/09/23 08:45:26;;;;;;;5.35;2.80;;;;;;;12.52;100.00;101138.38;5033432;28;20115;-72
2023/09/23 08:47:52;;;;;;;11.25;3.85;;;;;;;12.58;100.00;101145.59;5051727;28;20090;-72
2023/09/23 08:50:20;;;;;;;9.18;3.88;;;;;;;12.71;100.00;101152.72;5051478;28;20029;-70
2023/09/23 08:52:46;;;;;;;8.57;3.60;;;;;;;12.73;100.00;101156.03;5058441;28;20032;-70
2023/09/23 08:55:15;;;;;;;9.80;3.40;;;;;;;12.79;100.00;101167.00;5051792;28;20025;-72
2023/09/23 08:57:41;;;;;;;7.88;3.38;;;;;;;12.81;100.00;101173.88;5057684;28;20036;-74
2023/09/23 09:00:10;;;;;;;5.47;2.40;;;;;;;12.86;100.00;101173.16;5050851;28;20031;-71
2023/09/23 09:02:35;;;;;;;13.77;4.00;;;;;;;12.87;100.00;101172.94;5048850;28;20033;-72
2023/09/23 09:05:01;;;;;;;9.27;3.17;;;;;;;12.92;100.00;101173.06;5050870;28;20053;-72
2023/09/23 09:07:34;;;;;;;8.13;3.00;;;;;;;12.96;100.00;101175.31;5054658;28;20033;-71
2023/09/23 09:10:02;;;;;;;10.55;3.22;;;;;;;13.03;100.00;101171.44;5054725;28;20342;-74
2023/09/23 09:12:27;;;;;;;7.85;3.00;;;;;;;13.11;100.00;101179.25;5057760;28;20053;-73
2023/09/23 09:14:53;;;;;;;5.55;2.47;;;;;;;13.19;100.00;101186.22;5069876;28;20071;-78
2023/09/23 09:17:19;;;;;;;6.70;2.63;;;;;;;13.28;100.00;101195.69;5068777;28;20025;-79
2023/09/23 09:19:44;;;;;;;7.47;3.03;;;;;;;13.35;100.00;101190.19;5066162;28;20036;-70
2023/09/23 09:22:10;;;;;;;9.73;2.95;;;;;;;13.35;100.00;101200.22;5061445;28;20103;-71
2023/09/23 09:24:35;;;;;;;8.38;2.90;;;;;;;13.35;100.00;101201.06;5062180;28;20025;-71
2023/09/23 09:27:00;;;;;;;6.75;2.60;;;;;;;13.38;100.00;101216.06;5066300;28;20124;-71
2023/09/23 09:29:26;;;;;;;12.38;3.03;;;;;;;13.34;100.00;101214.88;5065890;28;20107;-71
2023/09/23 09:31:59;;;;;;;10.68;3.00;;;;;;;13.29;100.00;101218.28;5036623;28;20075;-71
2023/09/23 09:34:30;;;;;;;7.45;2.58;;;;;;;13.28;100.00;101211.16;5064797;28;20039;-71
2023/09/23 09:36:57;;;;;;;7.75;2.40;;;;;;;13.24;100.00;101213.53;5074045;28;20024;-72
2023/09/23 09:39:28;;;;;;;8.68;2.95;;;;;;;13.22;100.00;101215.63;5074131;28;20049;-71
2023/09/23 09:41:54;;;;;;;7.18;2.53;;;;;;;13.24;100.00;101209.97;5065509;28;20032;-71
2023/09/23 09:44:22;;;;;;;8.07;2.40;;;;;;;13.26;100.00;101218.75;5068180;28;20412;-72
2023/09/23 09:46:51;;;;;;;10.05;2.95;;;;;;;13.28;100.00;101222.03;5074329;28;20027;-74
2023/09/23 09:49:17;;;;;;;8.00;2.58;;;;;;;13.29;100.00;101229.13;5061151;28;20028;-71
2023/09/23 09:51:46;;;;;;;6.88;2.55;;;;;;;13.29;100.00;101229.13;5074448;28;20032;-71
2023/09/23 09:54:12;;;;;;;11.02;1.85;;;;;;;13.34;100.00;101231.19;5069261;28;20066;-71
2023/09/23 09:56:39;;;;;;;6.68;2.40;;;;;;;13.35;100.00;101232.84;5056557;28;20033;-72
2023/09/23 09:59:05;;;;;;;3.13;1.40;;;;;;;13.40;100.00;101236.50;5074130;28;20032;-72
2023/09/23 10:01:30;;;;;;;9.23;3.05;;;;;;;13.38;100.00;101238.63;5054329;28;20387;-72
2023/09/23 10:03:56;;;;;;;7.85;2.42;;;;;;;13.43;100.00;101237.94;5068182;28;20137;-72
2023/09/23 10:06:22;;;;;;;8.43;2.90;;;;;;;13.46;100.00;101238.28;5066612;28;20037;-76
2023/09/23 10:08:48;;;;;;;9.30;2.80;;;;;;;13.51;100.00;101240.28;5041823;28;20036;-72
2023/09/23 10:11:15;;;;;;;9.07;2.88;;;;;;;13.54;100.00;101239.84;5053798;28;20033;-71
2023/09/23 10:13:42;;;;;;;8.93;2.92;;;;;;;13.58;100.00;101243.72;5057567;28;20029;-71
2023/09/23 10:16:19;;;;;;;8.68;2.60;;;;;;;13.70;100.00;101240.22;5073591;28;20115;-72
2023/09/23 10:18:53;;;;;;;8.80;2.72;;;;;;;13.80;100.00;101245.88;5056111;28;20377;-71
2023/09/23 10:21:29;;;;;;;9.23;2.90;;;;;;;13.90;100.00;101245.28;5055625;28;20032;-71
2023/09/23 10:23:56;;;;;;;9.80;2.88;;;;;;;13.94;100.00;101241.03;5062657;28;20036;-72
2023/09/23 10:26:24;;;;;;;9.65;2.58;;;;;;;14.02;100.00;101245.28;5055753;28;20024;-71
2023/09/23 10:28:57;;;;;;;7.53;2.50;;;;;;;14.02;100.00;101253.44;5045783;28;20036;-71
2023/09/23 10:31:31;;;;;;;11.73;2.70;;;;;;;13.99;100.00;101261.03;5073726;28;20120;-72
2023/09/23 10:33:57;;;;;;;5.82;2.30;;;;;;;13.99;100.00;101263.75;5072567;28;20040;-76
2023/09/23 10:36:23;;;;;;;11.23;2.70;;;;;;;13.98;100.00;101259.34;5055700;28;20028;-77
2023/09/23 10:38:49;;;;;;;9.57;3.20;;;;;;;13.98;100.00;101256.63;5073873;28;20109;-79
2023/09/23 10:41:15;;;;;;;9.00;2.60;;;;;;;14.03;100.00;101263.25;5073505;28;20510;-75
2023/09/23 10:43:40;;;;;;;8.20;2.60;;;;;;;14.07;100.00;101262.56;5050829;28;20442;-75
2023/09/23 10:46:06;;;;;;;9.70;2.90;;;;;;;14.11;100.00;101274.59;5055569;28;20078;-73
2023/09/23 10:48:32;;;;;;;8.43;2.33;;;;;;;14.14;100.00;101274.13;5073562;28;20376;-73
2023/09/23 10:51:00;;;;;;;7.97;2.40;;;;;;;14.16;100.00;101274.72;5073393;28;20035;-73
2023/09/23 10:53:27;;;;;;;8.15;2.80;;;;;;;14.15;100.00;101281.22;5053602;28;20020;-73
2023/09/23 10:55:53;;;;;;;5.68;2.22;;;;;;;14.14;100.00;101289.63;5073244;28;20428;-73
2023/09/23 10:58:19;;;;;;;7.90;2.70;;;;;;;14.14;100.00;101289.63;5073162;28;20067;-72
2023/09/23 11:00:45;;;;;;;8.50;2.50;;;;;;;14.13;100.00;101301.56;5071018;28;20021;-72
2023/09/23 11:03:17;;;;;;;8.50;2.80;;;;;;;14.11;100.00;101299.09;5066922;28;20021;-72
2023/09/23 11:05:43;;;;;;;7.18;2.65;;;;;;;14.15;100.00;101299.47;5035208;28;20370;-72
2023/09/23 11:08:10;;;;;;;9.32;2.92;;;;;;;14.17;100.00;101305.47;5053122;28;20111;-75
2023/09/23 11:10:47;;;;;;;7.78;2.67;;;;;;;14.25;100.00;101307.84;5053279;28;20029;-76
2023/09/23 11:13:13;;;;;;;7.68;2.80;;;;;;;14.36;100.00;101315.16;5053411;28;20037;-73